Time;durP1;ratioP1;P1;durP2;ratioP2;P2;SDS_P1;SDS_P2;PMS_P1;PMS_P2;Temp;Humidity;BMP_temperature;BMP_pressure;BME280_temperature;BME280_humidity;BME280_pressure;Samples;Min_cycle;Max_cycle;Signal;HPM_P1;HPM_P2
2022/12/20 00:01:53;;;;;;;1.95;1.13;;;9.90;83.90;;;;;;5052246;28;20422;-60
2022/12/20 00:04:18;;;;;;;1.05;0.88;;;10.10;83.70;;;;;;5048679;28;20040;-62
2022/12/20 00:06:44;;;;;;;1.75;1.08;;;10.10;83.50;;;;;;5066358;28;20032;-60
2022/12/20 00:09:11;;;;;;;0.80;0.70;;;10.30;83.80;;;;;;5055448;28;20028;-60
2022/12/20 00:11:39;;;;;;;0.95;0.77;;;10.40;83.60;;;;;;5051264;28;20450;-60
2022/12/20 00:14:06;;;;;;;1.88;1.10;;;10.50;83.10;;;;;;5055731;28;20456;-60
2022/12/20 00:16:32;;;;;;;1.00;0.75;;;10.60;83.00;;;;;;5041975;28;20091;-60
2022/12/20 00:19:00;;;;;;;1.13;0.95;;;10.70;83.00;;;;;;5043346;28;20116;-60
2022/12/20 00:21:27;;;;;;;1.92;1.02;;;10.80;82.80;;;;;;5035994;28;20522;-62
2022/12/20 00:23:54;;;;;;;1.52;1.20;;;10.90;82.60;;;;;;5045995;28;20037;-63
2022/12/20 00:26:23;;;;;;;3.05;1.45;;;10.90;82.30;;;;;;5041732;28;20024;-60
2022/12/20 00:28:49;;;;;;;1.00;0.90;;;11.00;82.20;;;;;;5043611;28;20037;-62
2022/12/20 00:31:18;;;;;;;1.27;1.00;;;11.00;82.10;;;;;;5042142;28;20029;-62
2022/12/20 00:33:46;;;;;;;1.67;0.80;;;11.10;82.00;;;;;;5043462;28;20013;-63
2022/12/20 00:36:13;;;;;;;1.13;0.73;;;11.10;81.90;;;;;;5045813;28;20020;-62
2022/12/20 00:38:39;;;;;;;1.00;0.77;;;11.20;81.80;;;;;;5047390;28;20028;-63
2022/12/20 00:41:09;;;;;;;2.08;0.93;;;11.20;81.70;;;;;;5045238;28;20407;-60
2022/12/20 00:43:35;;;;;;;1.00;0.68;;;11.20;81.70;;;;;;5048952;28;20070;-60
2022/12/20 00:46:00;;;;;;;1.02;0.85;;;11.30;81.60;;;;;;5035513;28;20077;-62
2022/12/20 00:48:28;;;;;;;1.95;0.75;;;11.30;81.30;;;;;;5066413;28;20523;-63
2022/12/20 00:51:02;;;;;;;0.95;0.82;;;11.30;81.10;;;;;;5043764;28;20048;-62
2022/12/20 00:53:28;;;;;;;1.33;0.88;;;11.40;81.10;;;;;;5040770;28;20044;-63
2022/12/20 00:55:54;;;;;;;2.03;1.00;;;11.40;81.00;;;;;;5042644;28;20428;-62
2022/12/20 00:58:20;;;;;;;0.90;0.80;;;11.40;80.90;;;;;;5043864;28;20485;-63
2022/12/20 01:00:46;;;;;;;1.67;1.00;;;11.50;80.70;;;;;;5047613;28;20124;-62
2022/12/20 01:03:12;;;;;;;0.77;0.60;;;11.50;80.50;;;;;;5042511;28;20036;-62
2022/12/20 01:05:38;;;;;;;0.98;0.77;;;11.60;80.50;;;;;;5046827;28;20169;-63
2022/12/20 01:08:04;;;;;;;0.85;0.85;;;11.60;80.30;;;;;;5026896;28;20091;-63
2022/12/20 01:10:30;;;;;;;1.42;0.80;;;11.60;80.30;;;;;;5040919;28;20057;-62
2022/12/20 01:12:56;;;;;;;0.60;0.60;;;11.60;80.30;;;;;;5049064;28;20114;-62
2022/12/20 01:15:22;;;;;;;0.63;0.63;;;11.70;80.20;;;;;;5049721;28;20083;-62
2022/12/20 01:17:48;;;;;;;0.75;0.70;;;11.60;80.20;;;;;;5048529;28;20364;-62
2022/12/20 01:20:14;;;;;;;0.68;0.68;;;11.70;80.20;;;;;;5051668;28;20498;-62
2022/12/20 01:22:40;;;;;;;1.02;0.60;;;11.70;80.10;;;;;;5048820;28;20025;-62
2022/12/20 01:25:06;;;;;;;0.75;0.70;;;11.70;80.10;;;;;;5050058;28;20033;-62
2022/12/20 01:27:32;;;;;;;1.15;0.75;;;11.70;80.00;;;;;;5048659;28;20059;-62
2022/12/20 01:29:58;;;;;;;2.00;0.75;;;11.70;80.10;;;;;;5050208;28;20029;-62
2022/12/20 01:32:23;;;;;;;1.05;0.95;;;11.70;80.00;;;;;;5050103;28;20021;-62
2022/12/20 01:34:49;;;;;;;0.80;0.60;;;11.60;80.10;;;;;;5048449;28;20517;-62
2022/12/20 01:37:15;;;;;;;0.60;0.60;;;11.70;80.10;;;;;;5048509;28;20029;-62
2022/12/20 01:39:41;;;;;;;0.93;0.80;;;11.70;80.00;;;;;;5054133;28;20032;-59
2022/12/20 01:42:11;;;;;;;0.50;0.50;;;11.70;79.90;;;;;;5059335;28;20522;-62
2022/12/20 01:44:42;;;;;;;1.88;0.95;;;11.80;79.90;;;;;;5044249;28;20052;-62
2022/12/20 01:47:09;;;;;;;1.08;0.70;;;11.80;79.70;;;;;;5048893;28;20033;-62
2022/12/20 01:49:41;;;;;;;1.88;1.08;;;11.80;79.80;;;;;;5050513;28;20023;-62
2022/12/20 01:52:18;;;;;;;2.20;1.00;;;11.80;79.90;;;;;;5048563;28;20403;-62
2022/12/20 01:55:06;;;;;;;1.25;0.60;;;11.80;80.00;;;;;;5049543;28;20040;-61
2022/12/20 01:57:40;;;;;;;1.20;0.63;;;11.80;80.00;;;;;;5046712;28;20788;-62
2022/12/20 02:00:10;;;;;;;2.05;1.10;;;11.70;80.10;;;;;;5046102;28;20051;-62
2022/12/20 02:02:36;;;;;;;1.58;0.80;;;11.70;80.40;;;;;;5050492;28;20373;-62
2022/12/20 02:05:02;;;;;;;5.78;1.25;;;11.70;80.70;;;;;;5049371;28;20082;-62
2022/12/20 02:07:32;;;;;;;1.67;0.95;;;11.60;80.80;;;;;;5046019;28;20020;-59
2022/12/20 02:10:00;;;;;;;0.82;0.70;;;11.60;80.90;;;;;;5049862;28;20037;-59
2022/12/20 02:12:46;;;;;;;1.42;0.70;;;11.50;81.50;;;;;;5048783;28;20044;-59
2022/12/20 02:15:40;;;;;;;1.42;1.00;;;11.50;81.50;;;;;;5048690;28;20048;-59
2022/12/20 02:18:08;;;;;;;1.52;0.95;;;11.50;81.70;;;;;;5043982;28;20033;-59
2022/12/20 02:21:04;;;;;;;2.08;0.70;;;11.50;82.10;;;;;;5048628;28;20109;-61
2022/12/20 02:23:44;;;;;;;1.17;1.08;;;11.50;82.30;;;;;;5057997;28;20054;-62
2022/12/20 02:26:28;;;;;;;0.80;0.70;;;11.40;82.60;;;;;;5051577;28;20032;-62
2022/12/20 02:29:13;;;;;;;1.95;0.98;;;11.40;83.60;;;;;;5040677;28;20017;-61
2022/12/20 02:31:43;;;;;;;0.90;0.70;;;11.40;83.10;;;;;;5048215;28;20036;-62
2022/12/20 02:34:11;;;;;;;1.45;0.95;;;11.40;83.10;;;;;;5048782;28;20028;-62
2022/12/20 02:36:36;;;;;;;1.98;1.13;;;11.40;83.20;;;;;;5051523;28;20086;-62
2022/12/20 02:39:02;;;;;;;2.05;1.13;;;11.30;83.50;;;;;;5046206;28;20033;-62
2022/12/20 02:41:40;;;;;;;2.45;1.23;;;11.30;83.80;;;;;;5050216;28;20028;-62
2022/12/20 02:47:01;;;;;;;1.52;1.00;;;11.30;84.30;;;;;;5048742;28;20075;-62
2022/12/20 02:49:31;;;;;;;5.93;1.75;;;11.30;85.20;;;;;;5048438;28;20028;-59
2022/12/20 02:52:00;;;;;;;1.15;1.00;;;11.30;84.70;;;;;;5046026;28;20083;-59
2022/12/20 02:54:27;;;;;;;1.30;1.10;;;11.30;84.90;;;;;;5048966;28;20044;-59
2022/12/20 02:57:00;;;;;;;1.55;1.20;;;11.30;85.00;;;;;;5058236;28;20487;-59
2022/12/20 02:59:35;;;;;;;1.08;0.93;;;11.30;85.20;;;;;;5048987;28;20032;-59
2022/12/20 03:02:01;;;;;;;0.90;0.60;;;11.30;85.20;;;;;;5047712;28;20040;-59
2022/12/20 03:04:31;;;;;;;2.00;1.30;;;11.30;85.10;;;;;;5047968;28;20064;-59
2022/12/20 03:06:59;;;;;;;1.08;0.70;;;11.30;85.10;;;;;;5047415;28;20243;-59
2022/12/20 03:09:25;;;;;;;1.77;0.93;;;11.40;85.10;;;;;;5049189;28;20479;-59
2022/12/20 03:11:51;;;;;;;0.75;0.75;;;11.30;85.00;;;;;;5054273;28;20044;-59
2022/12/20 03:14:17;;;;;;;2.63;1.08;;;11.30;84.90;;;;;;5047652;28;20117;-59
2022/12/20 03:16:43;;;;;;;0.85;0.68;;;11.30;84.90;;;;;;5057530;28;20116;-59
2022/12/20 03:19:09;;;;;;;1.38;0.93;;;11.30;84.90;;;;;;5048078;28;20029;-59
2022/12/20 03:21:34;;;;;;;1.55;0.98;;;11.30;84.90;;;;;;5057233;28;20109;-59
2022/12/20 03:24:00;;;;;;;1.05;0.80;;;11.30;84.90;;;;;;5047487;28;20103;-59
2022/12/20 03:26:26;;;;;;;0.63;0.63;;;11.30;85.00;;;;;;5054898;28;20032;-59
2022/12/20 03:28:51;;;;;;;0.65;0.65;;;11.30;84.90;;;;;;5045461;28;20403;-62
2022/12/20 03:31:17;;;;;;;0.77;0.63;;;11.30;84.90;;;;;;5053350;28;20634;-59
2022/12/20 03:33:43;;;;;;;1.23;0.70;;;11.30;84.90;;;;;;5048631;28;20510;-59
2022/12/20 03:36:08;;;;;;;0.88;0.60;;;11.30;84.80;;;;;;5050260;28;20053;-59
2022/12/20 03:38:34;;;;;;;1.30;0.82;;;11.30;84.80;;;;;;5051351;28;20082;-60
2022/12/20 03:41:00;;;;;;;0.70;0.70;;;11.20;84.80;;;;;;5052481;28;20028;-59
2022/12/20 03:43:25;;;;;;;0.90;0.90;;;11.20;84.90;;;;;;5052104;28;20047;-59
2022/12/20 03:45:51;;;;;;;1.20;0.63;;;11.10;84.90;;;;;;5054442;28;20070;-62
2022/12/20 03:48:17;;;;;;;4.70;0.60;;;11.10;85.10;;;;;;5046753;28;20282;-59
2022/12/20 03:50:42;;;;;;;1.10;0.95;;;11.10;85.20;;;;;;5053756;28;20045;-59
2022/12/20 03:53:08;;;;;;;0.90;0.75;;;11.00;85.20;;;;;;5058134;28;20068;-59
2022/12/20 03:55:34;;;;;;;1.02;0.60;;;11.00;85.20;;;;;;5048700;28;20071;-59
2022/12/20 03:57:59;;;;;;;0.80;0.73;;;11.10;85.20;;;;;;5054809;28;20036;-59
2022/12/20 04:00:25;;;;;;;0.90;0.50;;;11.00;85.10;;;;;;5054360;28;20076;-59
2022/12/20 04:02:51;;;;;;;0.45;0.45;;;11.10;85.20;;;;;;5049779;28;20365;-59
2022/12/20 04:05:17;;;;;;;0.60;0.52;;;11.00;85.10;;;;;;5045670;28;20052;-62
2022/12/20 04:07:44;;;;;;;0.60;0.60;;;11.00;85.10;;;;;;5048120;28;20047;-62
2022/12/20 04:10:10;;;;;;;5.28;0.88;;;11.00;85.00;;;;;;5052493;28;20467;-62
2022/12/20 04:12:36;;;;;;;0.50;0.50;;;11.00;85.10;;;;;;5056071;28;20375;-62
2022/12/20 04:15:02;;;;;;;0.60;0.60;;;11.00;85.20;;;;;;5054033;28;20079;-59
2022/12/20 04:17:28;;;;;;;1.10;0.80;;;11.00;85.20;;;;;;5050235;28;20419;-59
2022/12/20 04:19:54;;;;;;;0.93;0.82;;;11.00;85.30;;;;;;5050713;28;20017;-59
2022/12/20 04:22:19;;;;;;;2.65;0.95;;;11.10;85.20;;;;;;5051385;28;20041;-59
2022/12/20 04:24:45;;;;;;;1.25;0.82;;;11.10;85.20;;;;;;5053973;28;20087;-62
2022/12/20 04:27:11;;;;;;;1.27;0.73;;;11.10;85.10;;;;;;5045138;28;20041;-62
2022/12/20 04:29:36;;;;;;;0.95;0.60;;;11.10;85.10;;;;;;5059388;28;20063;-62
2022/12/20 04:32:02;;;;;;;1.23;0.73;;;11.10;85.00;;;;;;5051727;28;20021;-62
2022/12/20 04:34:28;;;;;;;1.33;1.20;;;11.10;85.00;;;;;;5050454;28;20027;-62
2022/12/20 04:36:53;;;;;;;1.05;0.90;;;11.10;85.20;;;;;;5050659;28;20128;-62
2022/12/20 04:39:19;;;;;;;2.40;0.70;;;11.20;85.40;;;;;;5053609;28;20025;-62
2022/12/20 04:41:44;;;;;;;1.40;1.25;;;11.20;85.30;;;;;;5049503;28;20056;-59
2022/12/20 04:44:10;;;;;;;1.17;0.88;;;11.30;85.30;;;;;;5051100;28;20200;-62
2022/12/20 04:46:36;;;;;;;1.35;0.90;;;11.30;85.10;;;;;;5051267;28;20033;-62
2022/12/20 04:49:01;;;;;;;1.25;0.93;;;11.30;85.10;;;;;;5050727;28;20410;-60
2022/12/20 04:51:27;;;;;;;2.53;1.48;;;11.30;85.10;;;;;;5050639;28;20033;-60
2022/12/20 04:53:53;;;;;;;2.15;1.13;;;11.30;85.30;;;;;;5043144;28;20504;-60
2022/12/20 04:56:27;;;;;;;1.67;1.20;;;11.40;85.40;;;;;;5050344;28;20036;-60
2022/12/20 04:58:53;;;;;;;1.50;1.00;;;11.40;85.40;;;;;;5050720;28;20098;-59
2022/12/20 05:01:20;;;;;;;1.58;1.10;;;11.50;85.40;;;;;;5049974;28;20442;-59
2022/12/20 05:03:46;;;;;;;1.02;0.90;;;11.50;85.40;;;;;;5046977;28;20075;-62
2022/12/20 05:06:12;;;;;;;2.22;1.00;;;11.60;85.30;;;;;;5050895;28;20108;-62
2022/12/20 05:08:38;;;;;;;0.75;0.75;;;11.60;85.20;;;;;;5041921;28;20028;-62
2022/12/20 05:11:04;;;;;;;1.35;1.13;;;11.70;85.20;;;;;;5048871;28;20032;-63
2022/12/20 05:13:31;;;;;;;1.60;0.70;;;11.70;85.20;;;;;;5048401;28;20028;-59
2022/12/20 05:15:57;;;;;;;1.80;1.30;;;11.80;85.20;;;;;;5050780;28;20372;-59
2022/12/20 05:18:24;;;;;;;1.45;1.20;;;11.80;85.30;;;;;;5049317;28;20021;-62
2022/12/20 05:26:16;;;;;;;1.50;0.77;;;11.80;85.20;;;;;;5047818;28;20036;-62
2022/12/20 05:26:23;;;;;;;1.15;1.05;;;11.90;85.20;;;;;;5050492;28;20059;-60
2022/12/20 05:28:49;;;;;;;0.80;0.77;;;11.90;85.20;;;;;;5048261;28;20126;-62
2022/12/20 05:31:14;;;;;;;0.50;0.50;;;11.90;85.40;;;;;;5031460;28;20068;-61
2022/12/20 05:33:40;;;;;;;5.63;0.80;;;11.90;85.50;;;;;;5047816;28;20032;-61
2022/12/20 05:36:06;;;;;;;1.05;0.80;;;11.90;85.30;;;;;;5046472;28;20614;-62
2022/12/20 05:38:32;;;;;;;1.40;0.90;;;11.80;85.60;;;;;;5049243;28;20033;-59
2022/12/20 05:40:58;;;;;;;1.50;0.93;;;11.80;85.90;;;;;;5053659;28;20063;-59
2022/12/20 05:43:23;;;;;;;1.75;0.60;;;11.80;86.10;;;;;;5038216;28;20034;-59
2022/12/20 05:45:51;;;;;;;1.38;0.90;;;11.80;86.00;;;;;;5054380;28;20456;-59
2022/12/20 05:48:17;;;;;;;1.33;0.93;;;11.80;86.10;;;;;;5056156;28;20040;-59
2022/12/20 05:50:44;;;;;;;1.60;0.98;;;11.80;86.10;;;;;;5051083;28;20029;-59
2022/12/20 05:53:13;;;;;;;0.80;0.80;;;11.80;86.10;;;;;;5048556;28;20447;-61
2022/12/20 05:55:44;;;;;;;1.20;0.80;;;11.80;86.30;;;;;;5047556;28;20025;-62
2022/12/20 05:58:12;;;;;;;0.52;0.52;;;11.80;86.30;;;;;;5049532;28;20021;-59
2022/12/20 06:00:41;;;;;;;0.85;0.63;;;11.80;86.30;;;;;;5047049;28;20029;-62
2022/12/20 06:03:08;;;;;;;1.02;0.95;;;11.80;86.40;;;;;;5047598;28;20037;-61
2022/12/20 06:05:35;;;;;;;1.00;0.90;;;11.80;86.40;;;;;;5050082;28;20039;-62
2022/12/20 06:08:02;;;;;;;1.02;0.90;;;11.80;86.30;;;;;;5043683;28;20456;-59
2022/12/20 06:10:28;;;;;;;0.52;0.52;;;11.80;86.30;;;;;;5049011;28;20026;-62
2022/12/20 06:12:53;;;;;;;1.40;1.10;;;11.80;86.20;;;;;;5048636;28;20039;-62
2022/12/20 06:15:19;;;;;;;0.68;0.63;;;11.80;86.20;;;;;;5047840;28;20531;-62
2022/12/20 06:17:45;;;;;;;0.63;0.47;;;11.80;86.20;;;;;;5046130;28;20112;-60
2022/12/20 06:20:11;;;;;;;1.77;0.80;;;11.80;86.00;;;;;;5045214;28;20021;-59
2022/12/20 06:22:37;;;;;;;1.42;0.82;;;11.80;85.90;;;;;;5040904;28;20030;-59
2022/12/20 06:25:04;;;;;;;1.10;0.65;;;11.80;86.00;;;;;;5038034;28;20105;-59
2022/12/20 06:27:30;;;;;;;0.50;0.50;;;11.70;85.90;;;;;;5036780;28;20034;-59
2022/12/20 06:29:56;;;;;;;1.10;1.00;;;11.70;85.90;;;;;;5044752;28;20021;-59
2022/12/20 06:32:22;;;;;;;1.10;1.00;;;11.70;86.00;;;;;;5048778;28;20490;-59
2022/12/20 06:34:47;;;;;;;0.70;0.63;;;11.60;86.00;;;;;;5047293;28;20357;-59
2022/12/20 06:37:13;;;;;;;1.08;0.35;;;11.60;86.10;;;;;;5045582;28;20025;-59
2022/12/20 06:39:38;;;;;;;0.55;0.50;;;11.60;86.10;;;;;;5047568;28;20422;-59
2022/12/20 06:42:05;;;;;;;1.17;0.68;;;11.50;86.10;;;;;;5030500;28;20029;-59
2022/12/20 06:44:31;;;;;;;0.60;0.50;;;11.50;86.20;;;;;;5045298;28;20124;-59
2022/12/20 06:46:57;;;;;;;0.50;0.50;;;11.50;86.20;;;;;;5047716;28;20186;-59
2022/12/20 06:49:22;;;;;;;1.25;0.80;;;11.50;86.20;;;;;;5047923;28;20037;-59
2022/12/20 06:51:48;;;;;;;0.73;0.63;;;11.50;86.30;;;;;;5047569;28;20492;-59
2022/12/20 06:54:14;;;;;;;0.80;0.77;;;11.50;86.40;;;;;;5048768;28;20041;-59
2022/12/20 06:56:39;;;;;;;1.10;1.00;;;11.50;86.30;;;;;;5046089;28;20024;-59
2022/12/20 06:59:05;;;;;;;1.42;1.05;;;11.50;86.20;;;;;;5048755;28;20033;-62
2022/12/20 07:01:31;;;;;;;1.10;0.77;;;11.50;86.30;;;;;;5047731;28;20112;-62
2022/12/20 07:03:57;;;;;;;0.57;0.52;;;11.50;86.30;;;;;;5049602;28;20037;-59
2022/12/20 07:06:22;;;;;;;1.20;0.70;;;11.50;86.30;;;;;;5047070;28;20464;-60
2022/12/20 07:08:48;;;;;;;3.17;1.20;;;11.50;86.30;;;;;;5050442;28;20041;-62
2022/12/20 07:11:14;;;;;;;0.57;0.57;;;11.60;86.30;;;;;;5053395;28;20037;-62
2022/12/20 07:13:39;;;;;;;0.52;0.52;;;11.60;86.20;;;;;;5051363;28;20024;-62
2022/12/20 07:16:06;;;;;;;1.20;0.85;;;11.70;86.10;;;;;;5051511;28;20033;-62
2022/12/20 07:18:34;;;;;;;3.03;1.27;;;11.70;85.90;;;;;;5053498;28;20047;-62
2022/12/20 07:21:00;;;;;;;1.73;1.23;;;11.70;85.90;;;;;;5051736;28;20033;-62
2022/12/20 07:23:26;;;;;;;1.10;1.05;;;11.70;85.90;;;;;;5054528;28;20479;-62
2022/12/20 07:25:56;;;;;;;0.68;0.60;;;11.70;85.90;;;;;;5050891;28;20084;-62
2022/12/20 07:28:23;;;;;;;1.63;1.25;;;11.80;85.90;;;;;;5046844;28;20042;-62
2022/12/20 07:30:49;;;;;;;1.90;1.13;;;11.80;85.90;;;;;;5051628;28;20555;-62
2022/12/20 07:33:15;;;;;;;0.70;0.68;;;11.70;85.80;;;;;;5051338;28;20024;-63
2022/12/20 07:35:42;;;;;;;1.42;1.05;;;11.80;85.90;;;;;;5052058;28;20409;-62
2022/12/20 07:38:08;;;;;;;0.77;0.70;;;11.80;85.70;;;;;;5051361;28;20083;-62
2022/12/20 07:40:34;;;;;;;0.70;0.68;;;11.90;85.50;;;;;;5052257;28;20021;-59
2022/12/20 07:42:59;;;;;;;0.68;0.68;;;11.80;85.30;;;;;;5041853;28;20009;-59
2022/12/20 07:45:25;;;;;;;1.38;0.95;;;11.80;85.40;;;;;;5051119;28;20033;-59
2022/12/20 07:47:51;;;;;;;0.88;0.88;;;11.80;85.30;;;;;;5049241;28;20763;-62
2022/12/20 07:50:16;;;;;;;1.10;0.57;;;11.80;85.20;;;;;;5054964;28;20470;-60
2022/12/20 07:52:45;;;;;;;2.38;0.70;;;11.90;85.20;;;;;;5045565;28;21086;-62
2022/12/20 07:55:12;;;;;;;1.42;0.93;;;11.90;85.10;;;;;;5052940;28;20025;-62
2022/12/20 07:57:45;;;;;;;0.85;0.65;;;11.90;85.10;;;;;;5043369;28;20138;-62
2022/12/20 08:00:12;;;;;;;1.73;0.88;;;11.90;85.50;;;;;;5049305;28;20384;-62
2022/12/20 08:02:49;;;;;;;1.45;0.80;;;11.90;84.80;;;;;;5051387;28;20033;-63
2022/12/20 08:05:16;;;;;;;0.90;0.68;;;12.00;84.80;;;;;;5047086;28;20040;-61
2022/12/20 08:07:45;;;;;;;2.22;1.02;;;11.90;84.70;;;;;;5049881;28;20546;-60
2022/12/20 08:10:13;;;;;;;0.60;0.60;;;12.00;84.60;;;;;;5050541;28;20029;-61
2022/12/20 08:12:40;;;;;;;1.67;0.77;;;12.00;84.60;;;;;;5049587;28;20494;-62
2022/12/20 08:15:06;;;;;;;1.85;0.98;;;11.90;84.50;;;;;;5051435;28;20017;-62
2022/12/20 08:17:32;;;;;;;1.13;0.98;;;11.90;84.50;;;;;;5050944;28;20033;-62
2022/12/20 08:19:59;;;;;;;1.50;0.82;;;11.90;84.50;;;;;;5050789;28;20099;-61
2022/12/20 08:22:25;;;;;;;1.60;0.82;;;11.90;84.40;;;;;;5050308;28;20067;-63
2022/12/20 08:24:50;;;;;;;2.08;0.98;;;11.90;84.50;;;;;;5048508;28;20552;-58
2022/12/20 08:27:16;;;;;;;3.28;0.98;;;11.90;84.50;;;;;;5046736;28;20446;-62
2022/12/20 08:29:42;;;;;;;1.77;1.08;;;11.90;84.50;;;;;;5050943;28;20100;-61
2022/12/20 08:32:08;;;;;;;2.78;0.90;;;12.00;84.40;;;;;;5050985;28;20028;-61
2022/12/20 08:34:34;;;;;;;1.10;1.00;;;12.00;84.30;;;;;;5049976;28;20017;-59
2022/12/20 08:37:00;;;;;;;1.00;0.77;;;12.00;84.10;;;;;;5048044;28;20055;-59
2022/12/20 08:39:26;;;;;;;1.02;0.68;;;12.00;84.00;;;;;;5044010;28;20036;-61
2022/12/20 08:41:51;;;;;;;0.95;0.60;;;12.00;84.00;;;;;;5047946;28;20082;-59
2022/12/20 08:44:17;;;;;;;1.85;1.20;;;12.00;84.10;;;;;;5051932;28;20353;-59
2022/12/20 08:46:42;;;;;;;1.35;0.75;;;12.00;84.20;;;;;;5049143;28;20062;-60
2022/12/20 08:49:08;;;;;;;4.57;1.15;;;12.00;84.20;;;;;;5048404;28;20063;-60
2022/12/20 08:51:34;;;;;;;0.70;0.70;;;12.00;84.20;;;;;;5050516;28;20032;-62
2022/12/20 08:54:01;;;;;;;1.00;0.88;;;12.00;84.30;;;;;;5053145;28;20056;-59
2022/12/20 08:56:27;;;;;;;1.35;0.85;;;12.00;84.30;;;;;;5051769;28;20037;-59
2022/12/20 08:58:53;;;;;;;1.00;0.85;;;12.10;84.30;;;;;;5052861;28;20079;-61
2022/12/20 09:01:20;;;;;;;1.50;0.65;;;12.10;84.20;;;;;;5049144;28;20048;-61
2022/12/20 09:03:47;;;;;;;0.70;0.70;;;12.10;84.10;;;;;;5055520;28;20052;-61
2022/12/20 09:06:21;;;;;;;1.20;0.90;;;12.10;84.50;;;;;;5045237;28;20043;-60
2022/12/20 09:08:47;;;;;;;1.92;1.00;;;12.20;84.00;;;;;;5046259;28;20128;-59
2022/12/20 09:11:17;;;;;;;1.13;0.80;;;12.20;84.00;;;;;;5038455;28;20087;-58
2022/12/20 09:13:45;;;;;;;1.02;0.82;;;12.20;84.10;;;;;;5046424;28;20836;-58
2022/12/20 09:16:14;;;;;;;1.02;0.95;;;12.20;84.20;;;;;;5040162;28;20025;-62
2022/12/20 09:18:40;;;;;;;2.08;0.70;;;12.10;84.40;;;;;;5044340;28;20031;-60
2022/12/20 09:21:07;;;;;;;1.27;1.02;;;12.10;84.60;;;;;;5047324;28;20032;-57
2022/12/20 09:23:33;;;;;;;1.10;0.75;;;12.10;85.40;;;;;;5038703;28;20467;-58
2022/12/20 09:26:04;;;;;;;1.20;0.90;;;12.10;85.00;;;;;;5031853;28;20041;-59
2022/12/20 09:28:31;;;;;;;0.82;0.73;;;12.00;85.10;;;;;;5045732;28;20337;-60
2022/12/20 09:31:02;;;;;;;0.95;0.80;;;12.00;85.30;;;;;;5050641;28;20526;-60
2022/12/20 09:33:29;;;;;;;0.70;0.60;;;12.00;85.40;;;;;;5040738;28;20052;-61
2022/12/20 09:35:55;;;;;;;1.67;1.23;;;12.00;85.40;;;;;;5041729;28;20039;-61
2022/12/20 09:38:21;;;;;;;1.58;0.70;;;12.00;85.40;;;;;;5049087;28;20037;-62
2022/12/20 09:40:49;;;;;;;1.13;0.93;;;12.00;85.50;;;;;;5042360;28;20029;-60
2022/12/20 09:43:16;;;;;;;0.85;0.68;;;12.00;85.50;;;;;;5034305;28;20025;-60
2022/12/20 09:45:46;;;;;;;0.70;0.63;;;12.00;85.50;;;;;;5050631;28;20067;-60
2022/12/20 09:48:37;;;;;;;0.80;0.73;;;11.90;85.60;;;;;;5037736;28;20035;-60
2022/12/20 09:51:08;;;;;;;1.05;0.85;;;12.00;85.80;;;;;;5042052;28;20045;-61
2022/12/20 09:53:46;;;;;;;1.90;0.98;;;11.90;85.90;;;;;;5045172;28;20070;-57
2022/12/20 09:56:19;;;;;;;2.72;1.05;;;11.90;86.00;;;;;;5051175;28;20455;-58
2022/12/20 09:59:05;;;;;;;0.95;0.93;;;11.90;86.10;;;;;;5037740;28;20086;-58
2022/12/20 10:01:33;;;;;;;2.05;1.13;;;12.00;86.20;;;;;;5034626;28;20488;-58
2022/12/20 10:04:06;;;;;;;1.88;1.17;;;11.90;86.10;;;;;;5036417;28;20017;-60
2022/12/20 10:06:49;;;;;;;3.13;0.80;;;12.00;86.20;;;;;;5030676;28;20451;-60
2022/12/20 10:09:29;;;;;;;2.08;1.50;;;12.00;86.20;;;;;;5073299;28;20028;-61
2022/12/20 10:12:06;;;;;;;2.47;0.90;;;12.00;86.20;;;;;;5043117;28;20135;-58
2022/12/20 10:14:43;;;;;;;3.78;1.10;;;12.00;86.30;;;;;;5039701;28;20056;-61
2022/12/20 10:17:52;;;;;;;4.20;0.88;;;11.90;86.40;;;;;;5049203;28;20020;-62
2022/12/20 10:20:36;;;;;;;1.33;0.98;;;11.90;86.40;;;;;;5034077;28;20064;-61
2022/12/20 10:23:04;;;;;;;1.55;1.10;;;11.90;86.50;;;;;;5047207;28;20107;-58
2022/12/20 10:25:32;;;;;;;1.17;0.98;;;11.90;86.60;;;;;;5044573;28;20391;-58
2022/12/20 10:28:02;;;;;;;1.23;0.70;;;11.90;86.60;;;;;;5042537;28;20021;-61
2022/12/20 10:30:31;;;;;;;2.35;1.50;;;11.90;86.70;;;;;;5037681;28;20017;-61
2022/12/20 10:32:57;;;;;;;1.52;0.80;;;11.90;86.70;;;;;;5044781;28;20387;-61
2022/12/20 10:35:23;;;;;;;1.23;0.90;;;11.90;86.80;;;;;;5044880;28;20098;-60
2022/12/20 10:38:02;;;;;;;1.17;0.93;;;11.90;86.80;;;;;;5044332;28;20522;-60
2022/12/20 10:40:35;;;;;;;0.98;0.88;;;12.00;86.90;;;;;;5045796;28;20392;-61
2022/12/20 10:43:01;;;;;;;;;;;11.90;86.90;;;;;;5048562;28;20029;-61
2022/12/20 10:45:30;;;;;;;1.95;1.05;;;11.90;87.00;;;;;;5051095;28;19923;-58
2022/12/20 10:47:59;;;;;;;0.68;0.68;;;11.90;87.20;;;;;;5044887;28;20448;-61
2022/12/20 10:50:25;;;;;;;7.15;1.23;;;11.90;87.20;;;;;;5042576;28;20111;-58
2022/12/20 10:53:03;;;;;;;1.25;0.47;;;11.90;87.30;;;;;;5040374;28;20037;-59
2022/12/20 10:55:35;;;;;;;1.13;0.90;;;11.90;87.80;;;;;;5044388;28;20020;-58
2022/12/20 10:58:11;;;;;;;0.98;0.88;;;11.90;87.20;;;;;;5038226;28;20036;-58
2022/12/20 11:00:37;;;;;;;14.52;1.33;;;11.90;87.20;;;;;;5044770;28;20021;-58
2022/12/20 11:03:20;;;;;;;1.98;0.93;;;11.90;87.20;;;;;;5051777;28;20407;-58
2022/12/20 11:05:54;;;;;;;1.08;0.80;;;12.00;87.20;;;;;;5048030;28;20655;-58
2022/12/20 11:08:23;;;;;;;1.05;0.90;;;11.90;87.30;;;;;;5041374;28;20107;-58
2022/12/20 11:10:49;;;;;;;1.70;0.90;;;11.90;87.40;;;;;;5046571;28;20052;-61
2022/12/20 11:13:24;;;;;;;2.25;1.05;;;12.00;87.60;;;;;;5043586;28;20037;-60
2022/12/20 11:15:55;;;;;;;0.77;0.77;;;12.00;87.40;;;;;;5045875;28;20025;-61
2022/12/20 11:18:46;;;;;;;1.00;0.88;;;12.00;87.50;;;;;;5038199;28;20029;-61
2022/12/20 11:21:53;;;;;;;0.90;0.75;;;12.00;87.50;;;;;;5030782;28;20033;-61
2022/12/20 11:24:51;;;;;;;0.55;0.55;;;12.00;87.60;;;;;;5035924;28;20160;-61
2022/12/20 11:27:52;;;;;;;1.40;1.13;;;12.00;87.60;;;;;;5036392;28;20043;-61
2022/12/20 11:30:19;;;;;;;1.65;1.10;;;12.00;87.80;;;;;;5026286;28;20901;-61
2022/12/20 11:33:25;;;;;;;4.88;1.00;;;12.00;87.90;;;;;;5038482;28;20472;-61
2022/12/20 11:36:04;;;;;;;0.85;0.80;;;12.00;87.60;;;;;;5044255;28;20464;-59
2022/12/20 11:39:07;;;;;;;4.00;0.90;;;12.00;87.70;;;;;;5039084;28;20555;-61
2022/12/20 11:41:41;;;;;;;1.40;0.90;;;12.10;87.60;;;;;;5065276;28;20388;-61
2022/12/20 11:44:23;;;;;;;1.17;0.82;;;12.00;87.70;;;;;;5044988;28;20265;-61
2022/12/20 11:47:17;;;;;;;1.25;0.98;;;12.10;87.70;;;;;;5036577;28;20045;-58
2022/12/20 11:49:56;;;;;;;1.35;1.20;;;12.10;87.50;;;;;;5038989;28;20529;-59
2022/12/20 11:52:40;;;;;;;1.63;0.93;;;12.10;87.60;;;;;;5042110;28;20490;-59
2022/12/20 11:55:11;;;;;;;1.02;0.82;;;12.10;87.60;;;;;;5044133;28;20110;-58
2022/12/20 11:58:00;;;;;;;2.23;0.87;;;12.10;87.60;;;;;;5044103;28;20502;-59
2022/12/20 12:00:26;;;;;;;0.93;0.82;;;12.10;87.70;;;;;;5049775;28;20063;-59
2022/12/20 12:03:17;;;;;;;1.20;0.88;;;12.10;87.70;;;;;;5043068;28;20055;-61
2022/12/20 12:05:52;;;;;;;0.80;0.70;;;12.10;87.50;;;;;;5040345;28;20032;-59
2022/12/20 12:08:57;;;;;;;2.17;0.85;;;12.10;87.50;;;;;;5040381;28;20124;-61
2022/12/20 12:11:26;;;;;;;1.10;0.80;;;12.20;87.50;;;;;;5026278;28;20100;-61
2022/12/20 12:13:54;;;;;;;1.27;0.90;;;12.10;87.60;;;;;;5044661;28;20053;-61
2022/12/20 12:16:26;;;;;;;0.70;0.70;;;12.10;87.70;;;;;;5046904;28;20029;-61
2022/12/20 12:18:53;;;;;;;0.75;0.75;;;12.10;87.80;;;;;;5051568;28;20477;-61
2022/12/20 12:21:23;;;;;;;1.30;1.20;;;12.10;87.90;;;;;;5041786;28;20744;-61
2022/12/20 12:24:11;;;;;;;0.95;0.82;;;12.20;88.00;;;;;;5043282;28;20048;-61
2022/12/20 12:26:39;;;;;;;1.92;1.17;;;12.20;88.10;;;;;;5038244;28;20424;-61
2022/12/20 12:29:08;;;;;;;2.58;1.00;;;12.20;88.20;;;;;;5045134;28;20029;-59
2022/12/20 12:31:59;;;;;;;0.98;0.88;;;12.20;88.20;;;;;;5047115;28;20029;-59
2022/12/20 12:34:24;;;;;;;1.23;1.00;;;12.20;88.10;;;;;;5048636;28;20116;-61
2022/12/20 12:37:27;;;;;;;0.98;0.80;;;12.20;88.40;;;;;;5045708;28;20120;-59
2022/12/20 12:40:11;;;;;;;;;;;12.20;88.30;;;;;;5056093;28;20025;-61
2022/12/20 12:43:14;;;;;;;1.50;0.90;;;12.20;88.50;;;;;;5047403;28;19996;-61
2022/12/20 12:45:55;;;;;;;1.17;0.90;;;12.20;88.50;;;;;;5039815;28;20033;-61
2022/12/20 12:48:37;;;;;;;1.88;1.10;;;12.20;88.60;;;;;;5042680;28;20391;-61
2022/12/20 12:51:05;;;;;;;1.60;0.82;;;12.20;88.70;;;;;;5046124;28;20044;-60
2022/12/20 12:53:49;;;;;;;0.85;0.82;;;12.20;88.60;;;;;;5034496;28;20132;-61
2022/12/20 12:56:27;;;;;;;1.48;1.20;;;12.20;88.60;;;;;;5041754;28;20064;-61
2022/12/20 12:59:05;;;;;;;1.23;0.93;;;12.20;88.60;;;;;;5037396;28;20028;-61
2022/12/20 13:01:55;;;;;;;1.25;0.90;;;12.30;88.80;;;;;;5036487;28;20037;-61
2022/12/20 13:04:30;;;;;;;2.05;1.27;;;12.30;88.60;;;;;;5027716;28;20095;-61
2022/12/20 13:06:58;;;;;;;0.75;0.57;;;12.30;88.70;;;;;;5043377;28;20036;-61
2022/12/20 13:09:26;;;;;;;0.82;0.80;;;12.30;88.80;;;;;;5046527;28;20036;-61